createdAt,value
2018-01-18T00:02:54.754Z,4.60
2018-01-18T00:05:49.973Z,4.60
2018-01-18T00:11:30.916Z,4.60
2018-01-18T00:17:10.628Z,4.50
2018-01-18T00:19:39.839Z,4.60
2018-01-18T00:22:09.066Z,4.70
2018-01-18T00:24:35.712Z,4.50
2018-01-18T00:27:04.778Z,4.60
2018-01-18T00:29:36.459Z,4.60
2018-01-18T00:32:18.980Z,4.50
2018-01-18T00:34:49.970Z,4.90
2018-01-18T00:37:16.350Z,4.70
2018-01-18T00:39:43.083Z,4.50
2018-01-18T00:42:22.894Z,4.70
2018-01-18T00:44:50.092Z,4.90
2018-01-18T00:47:23.622Z,4.60
2018-01-18T00:49:50.801Z,4.70
2018-01-18T00:52:20.274Z,5.10
2018-01-18T00:54:49.199Z,4.60
2018-01-18T00:57:20.656Z,4.90
2018-01-18T00:59:50.347Z,5.10
2018-01-18T01:02:17.627Z,4.70
2018-01-18T01:04:44.126Z,4.70
2018-01-18T01:07:10.427Z,4.30
2018-01-18T01:09:36.828Z,4.60
2018-01-18T01:12:18.693Z,4.70
2018-01-18T01:14:46.151Z,5.20
2018-01-18T01:17:12.338Z,4.80
2018-01-18T01:19:39.802Z,4.90
2018-01-18T01:22:17.117Z,4.70
2018-01-18T01:28:26.213Z,4.90
2018-01-18T01:30:53.974Z,5.10
2018-01-18T01:33:21.333Z,4.90
2018-01-18T01:35:48.536Z,4.90
2018-01-18T01:38:21.967Z,5.20
2018-01-18T01:40:48.330Z,4.90
2018-01-18T01:43:14.630Z,5.00
2018-01-18T01:45:50.870Z,4.80
2018-01-18T01:48:30.842Z,5.00
2018-01-18T01:50:58.642Z,5.00
2018-01-18T01:53:41.430Z,5.10
2018-01-18T01:56:08.051Z,5.10
2018-01-18T01:58:36.672Z,5.10
2018-01-18T02:01:09.935Z,5.00
2018-01-18T02:03:46.715Z,5.10
2018-01-18T02:06:15.032Z,4.80
2018-01-18T02:08:57.335Z,5.10
2018-01-18T02:14:11.914Z,5.50
2018-01-18T02:16:41.579Z,5.10
2018-01-18T02:19:15.319Z,5.40
2018-01-18T02:21:45.070Z,5.20
2018-01-18T02:24:22.928Z,5.10
2018-01-18T02:29:55.090Z,5.20
2018-01-18T02:32:22.293Z,5.20
2018-01-18T02:34:48.644Z,5.30
2018-01-18T02:37:16.936Z,5.10
2018-01-18T02:39:50.193Z,5.30
2018-01-18T02:42:16.745Z,5.00
2018-01-18T02:44:50.127Z,5.20
2018-01-18T02:47:17.708Z,5.20
2018-01-18T02:49:47.544Z,5.10
2018-01-18T02:52:14.672Z,5.00
2018-01-18T02:54:41.018Z,5.20
2018-01-18T02:57:07.746Z,5.40
2018-01-18T02:59:38.227Z,5.00
2018-01-18T03:02:04.639Z,5.20
2018-01-18T03:04:34.927Z,5.10
2018-01-18T03:07:01.600Z,4.90
2018-01-18T03:09:38.722Z,4.90
2018-01-18T03:12:27.460Z,5.10
2018-01-18T03:18:04.770Z,5.10
2018-01-18T03:20:31.593Z,5.10
2018-01-18T03:23:06.077Z,5.10
2018-01-18T03:25:33.746Z,4.90
2018-01-18T03:28:00.287Z,5.00
2018-01-18T03:30:26.947Z,5.20
2018-01-18T03:32:53.499Z,5.00
2018-01-18T03:38:51.217Z,5.00
2018-01-18T03:41:17.792Z,4.80
2018-01-18T03:43:44.104Z,4.90
2018-01-18T03:46:21.265Z,5.00
2018-01-18T03:48:49.889Z,4.80
2018-01-18T03:51:20.840Z,5.00
2018-01-18T03:53:47.262Z,4.80
2018-01-18T03:56:14.002Z,4.70
2018-01-18T04:08:12.556Z,4.70
2018-01-18T04:10:44.060Z,4.70
2018-01-18T04:13:12.491Z,4.30
2018-01-18T04:16:00.128Z,4.60
2018-01-18T04:18:29.767Z,4.60
2018-01-18T04:20:56.305Z,4.60
2018-01-18T04:23:23.001Z,4.40
2018-01-18T04:28:30.504Z,4.40
2018-01-18T04:31:06.142Z,4.30
2018-01-18T04:36:30.117Z,4.30
2018-01-18T04:39:08.383Z,4.70
2018-01-18T04:41:40.706Z,4.30
2018-01-18T08:21:28.118Z,7.90
2018-01-18T08:24:14.312Z,8.00
2018-01-18T08:29:44.990Z,8.30
2018-01-18T08:35:18.710Z,8.40
2018-01-18T08:38:01.047Z,8.40
2018-01-18T08:40:28.372Z,8.40
2018-01-18T08:42:55.116Z,8.50
2018-01-18T08:45:21.890Z,8.60
2018-01-18T08:47:49.128Z,8.80
2018-01-18T08:50:28.812Z,8.80
2018-01-18T08:56:05.512Z,8.60
2018-01-18T08:58:31.757Z,8.60
2018-01-18T09:01:01.925Z,9.30
2018-01-18T09:06:37.674Z,8.90
2018-01-18T09:09:26.764Z,8.80
2018-01-18T09:11:53.199Z,9.10
2018-01-18T09:17:21.779Z,9.20
2018-01-18T09:19:48.439Z,9.20
2018-01-18T09:22:17.111Z,9.30
2018-01-18T09:24:56.678Z,9.20
2018-01-18T09:27:26.818Z,9.20
2018-01-18T09:29:59.260Z,9.50
2018-01-18T09:39:08.028Z,9.30
2018-01-18T09:41:42.130Z,9.40
2018-01-18T09:44:20.994Z,9.40
2018-01-18T09:46:56.704Z,9.30
2018-01-18T10:20:24.384Z,8.80
2018-01-18T10:22:51.625Z,8.70
2018-01-18T10:34:38.859Z,8.30
2018-01-18T10:37:05.288Z,8.20
2018-01-18T10:39:38.566Z,8.10
2018-01-18T10:42:04.935Z,8.10
2018-01-18T10:44:31.759Z,8.10
2018-01-18T10:46:58.138Z,7.60
2018-01-18T10:52:18.817Z,7.60
2018-01-18T10:55:04.243Z,7.50
2018-01-18T10:57:50.351Z,7.40
2018-01-18T11:00:22.901Z,7.50
2018-01-18T11:09:19.693Z,7.20
2018-01-18T11:11:52.003Z,7.20
2018-01-18T11:17:32.225Z,7.00
2018-01-18T11:20:00.525Z,6.80
2018-01-18T11:22:28.395Z,6.90
2018-01-18T11:25:03.215Z,7.10
2018-01-18T11:30:40.695Z,6.90
2018-01-18T11:33:08.090Z,6.90
2018-01-18T11:41:39.692Z,6.70
2018-01-18T11:47:19.958Z,6.80
2018-01-18T11:56:03.066Z,6.60
2018-01-18T11:58:29.605Z,7.00
2018-01-18T12:00:58.167Z,6.60
2018-01-18T12:03:37.411Z,6.60
2018-01-18T12:06:11.307Z,6.60
2018-01-18T12:11:49.309Z,6.40
2018-01-18T12:17:40.682Z,6.40
2018-01-18T12:26:22.755Z,6.40
2018-01-18T12:38:20.567Z,6.30
2018-01-18T12:40:48.126Z,6.30
2018-01-18T12:43:17.937Z,6.30
2018-01-18T12:45:59.647Z,6.30
2018-01-18T12:48:36.611Z,6.30
2018-01-18T12:54:13.280Z,6.30
2018-01-18T12:56:41.671Z,6.70
2018-01-18T13:05:27.681Z,6.30
2018-01-18T13:29:24.626Z,5.50
2018-01-18T13:31:51.115Z,5.40
2018-01-18T13:34:42.704Z,4.90
2018-01-18T13:37:19.318Z,5.30
2018-01-18T13:39:45.660Z,5.30
2018-01-18T13:42:11.943Z,5.40
2018-01-18T13:47:44.463Z,5.40
2018-01-18T13:50:21.931Z,5.30
2018-01-18T13:55:56.881Z,5.40
2018-01-18T14:01:24.670Z,5.40
2018-01-18T14:04:15.854Z,5.40
2018-01-18T14:09:52.353Z,5.50
2018-01-18T14:18:42.451Z,5.50
2018-01-18T14:21:14.954Z,5.50
2018-01-18T14:27:20.394Z,5.40
2018-01-18T14:29:53.021Z,5.60
2018-01-18T14:32:19.754Z,5.40
2018-01-18T14:34:50.408Z,5.80
2018-01-18T14:49:33.141Z,5.70
2018-01-18T14:58:13.424Z,5.60
2018-01-18T15:00:42.791Z,5.60
2018-01-18T15:03:13.301Z,5.30
2018-01-18T15:05:41.496Z,5.40
2018-01-18T15:11:24.237Z,5.40
2018-01-18T15:13:50.707Z,5.10
2018-01-18T15:16:18.728Z,5.40
2018-01-18T15:21:35.951Z,5.30
2018-01-18T15:24:02.458Z,5.40
2018-01-18T15:35:30.791Z,5.50
2018-01-18T15:44:16.426Z,5.30
2018-01-18T15:46:48.315Z,5.40
2018-01-18T15:52:19.704Z,5.40
2018-01-18T15:54:50.635Z,5.40
2018-01-18T15:57:28.551Z,5.40
2018-01-18T15:59:55.769Z,5.30
2018-01-18T16:05:40.140Z,5.40
2018-01-18T16:10:50.459Z,5.30
2018-01-18T16:13:22.341Z,5.00
2018-01-18T16:15:48.886Z,5.10
2018-01-18T16:18:17.250Z,5.10
2018-01-18T16:20:43.714Z,5.20
2018-01-18T19:30:48.425Z,4.70
2018-01-18T19:39:16.546Z,4.80
2018-01-18T19:49:35.387Z,5.00
2018-01-18T19:52:01.634Z,5.00
2018-01-18T19:57:20.499Z,5.00
2018-01-18T19:59:47.131Z,4.90
2018-01-18T20:08:40.179Z,5.00
2018-01-18T20:11:07.549Z,4.90
2018-01-18T20:16:46.740Z,4.70
2018-01-18T20:19:20.637Z,4.80
2018-01-18T20:21:52.254Z,4.90
2018-01-18T20:24:30.754Z,4.70
2018-01-18T20:26:57.211Z,5.00
2018-01-18T20:29:41.506Z,4.70
2018-01-18T20:32:14.947Z,4.80
2018-01-18T20:35:21.815Z,4.80
2018-01-18T20:37:48.329Z,5.10
2018-01-18T20:40:16.256Z,4.70
2018-01-18T20:42:51.169Z,4.40
2018-01-18T20:45:21.030Z,4.40
2018-01-18T20:50:52.352Z,4.30
2018-01-18T20:56:10.781Z,4.60
2018-01-18T20:58:50.260Z,4.50
2018-01-18T21:01:25.118Z,4.50
2018-01-18T21:04:17.003Z,4.50
2018-01-18T21:16:01.188Z,4.40
2018-01-18T21:18:37.762Z,4.30
2018-01-18T21:27:27.722Z,4.20
2018-01-18T21:29:54.028Z,4.20
2018-01-18T21:32:20.332Z,4.10
2018-01-18T21:34:47.429Z,4.40
2018-01-18T21:37:17.593Z,4.30
2018-01-18T21:39:44.293Z,4.20
2018-01-18T21:45:20.662Z,4.40
2018-01-18T21:47:50.643Z,4.40
2018-01-18T21:50:17.322Z,4.10
2018-01-18T21:55:25.794Z,4.30
2018-01-18T21:57:57.733Z,4.30
2018-01-18T22:00:24.283Z,4.30
2018-01-18T22:06:01.030Z,4.30
2018-01-18T22:08:32.040Z,4.30
2018-01-18T22:10:58.439Z,4.10
2018-01-18T22:13:24.775Z,4.30
2018-01-18T22:19:09.644Z,4.30
2018-01-18T22:21:50.961Z,4.40
2018-01-18T22:34:08.044Z,4.30
2018-01-18T22:39:21.256Z,4.30
2018-01-18T22:41:47.746Z,4.40
2018-01-18T22:44:14.347Z,4.40
2018-01-18T22:46:40.998Z,4.30
2018-01-18T22:49:08.948Z,4.30
2018-01-18T22:51:38.590Z,4.10
2018-01-18T22:54:05.230Z,4.30
2018-01-18T22:56:32.392Z,4.40
2018-01-18T22:59:03.754Z,4.40
2018-01-18T23:01:32.353Z,4.70
2018-01-18T23:07:11.222Z,4.40
2018-01-18T23:09:37.749Z,4.30
2018-01-18T23:12:04.751Z,4.50
2018-01-18T23:14:43.867Z,4.30
2018-01-18T23:17:11.133Z,4.30
2018-01-18T23:19:37.539Z,4.40
2018-01-18T23:28:22.432Z,4.70
2018-01-18T23:30:49.123Z,4.40
2018-01-18T23:33:19.368Z,4.60
2018-01-18T23:38:58.551Z,4.60
2018-01-18T23:41:27.198Z,4.90
2018-01-18T23:47:12.436Z,4.70
2018-01-18T23:49:51.725Z,4.70
2018-01-18T23:52:18.195Z,4.80
2018-01-18T23:54:45.365Z,4.80
2018-01-18T23:57:13.369Z,5.20
2018-01-18T23:59:41.258Z,5.10
